createdAt,value
2023-10-14T00:00:40.339Z,8.45
2023-10-14T00:03:25.689Z,7.95
2023-10-14T00:05:56.027Z,7.55
2023-10-14T00:08:33.235Z,7.50
2023-10-14T00:11:08.440Z,7.35
2023-10-14T00:13:43.593Z,8.10
2023-10-14T00:16:25.937Z,7.82
2023-10-14T00:18:57.068Z,7.95
2023-10-14T00:21:28.046Z,7.68
2023-10-14T00:24:02.925Z,7.78
2023-10-14T00:26:33.999Z,14.10
2023-10-14T00:29:21.498Z,8.80
2023-10-14T00:31:52.980Z,8.88
2023-10-14T00:34:26.616Z,8.82
2023-10-14T00:36:57.643Z,10.15
2023-10-14T00:39:33.049Z,10.20
2023-10-14T00:42:04.318Z,11.00
2023-10-14T00:44:35.022Z,9.23
2023-10-14T00:47:08.970Z,9.27
2023-10-14T00:49:44.143Z,9.77
2023-10-14T00:52:21.063Z,10.23
2023-10-14T00:55:02.468Z,10.05
2023-10-14T00:57:40.831Z,10.82
2023-10-14T01:00:14.110Z,10.18
2023-10-14T01:02:48.766Z,10.40
2023-10-14T01:05:21.404Z,10.50
2023-10-14T01:07:52.144Z,10.70
2023-10-14T01:10:29.250Z,10.07
2023-10-14T01:12:57.449Z,8.82
2023-10-14T01:15:32.631Z,10.20
2023-10-14T01:18:03.107Z,8.02
2023-10-14T01:20:39.829Z,8.30
2023-10-14T01:23:15.665Z,7.78
2023-10-14T01:25:48.911Z,7.28
2023-10-14T01:28:22.817Z,7.25
2023-10-14T01:31:12.716Z,6.90
2023-10-14T01:33:43.115Z,7.15
2023-10-14T01:36:13.176Z,6.43
2023-10-14T01:38:52.352Z,6.63
2023-10-14T01:41:23.812Z,6.25
2023-10-14T01:43:53.957Z,6.80
2023-10-14T01:46:28.696Z,6.13
2023-10-14T01:49:09.773Z,6.80
2023-10-14T01:51:39.946Z,5.93
2023-10-14T01:54:13.798Z,5.63
2023-10-14T01:56:43.631Z,5.50
2023-10-14T01:59:14.266Z,5.40
2023-10-14T02:01:45.450Z,5.40
2023-10-14T02:04:17.216Z,5.25
2023-10-14T02:07:03.163Z,4.95
2023-10-14T02:09:37.397Z,4.80
2023-10-14T02:12:07.963Z,12.32
2023-10-14T02:14:38.558Z,4.07
2023-10-14T02:17:11.450Z,2.22
2023-10-14T02:19:43.251Z,1.27
2023-10-14T02:22:13.660Z,1.63
2023-10-14T02:24:46.166Z,1.35
2023-10-14T02:27:16.025Z,1.50
2023-10-14T02:29:48.181Z,1.13
2023-10-14T02:32:21.740Z,0.88
2023-10-14T02:34:52.541Z,1.00
2023-10-14T02:37:23.205Z,0.90
2023-10-14T02:39:55.761Z,0.80
2023-10-14T02:42:26.741Z,0.90
2023-10-14T02:44:56.545Z,0.98
2023-10-14T02:47:28.259Z,1.30
2023-10-14T02:50:06.924Z,1.38
2023-10-14T02:52:40.740Z,1.45
2023-10-14T02:55:23.998Z,0.90
2023-10-14T02:57:54.001Z,1.60
2023-10-14T03:00:30.687Z,1.02
2023-10-14T03:03:04.368Z,1.50
2023-10-14T03:05:38.154Z,1.17
2023-10-14T03:08:15.045Z,1.20
2023-10-14T03:10:55.720Z,1.50
2023-10-14T03:13:26.540Z,1.63
2023-10-14T03:15:56.961Z,1.65
2023-10-14T03:18:38.956Z,1.90
2023-10-14T03:21:11.035Z,1.50
2023-10-14T03:23:43.304Z,1.85
2023-10-14T03:26:16.700Z,2.10
2023-10-14T03:28:52.051Z,2.20
2023-10-14T03:31:26.020Z,2.20
2023-10-14T03:36:33.019Z,2.70
2023-10-14T03:39:19.186Z,2.13
2023-10-14T03:41:54.150Z,1.80
2023-10-14T03:44:26.305Z,1.77
2023-10-14T03:47:01.395Z,2.10
2023-10-14T03:49:34.253Z,2.63
2023-10-14T03:52:04.394Z,3.60
2023-10-14T03:54:43.039Z,3.92
2023-10-14T03:57:20.966Z,4.53
2023-10-14T03:59:50.915Z,4.95
2023-10-14T04:02:26.611Z,5.38
2023-10-14T04:05:09.286Z,5.85
2023-10-14T04:07:42.057Z,5.93
2023-10-14T04:10:13.511Z,4.63
2023-10-14T04:12:54.747Z,3.67
2023-10-14T04:15:46.928Z,4.88
2023-10-14T04:18:23.278Z,3.88
2023-10-14T04:21:12.317Z,3.50
2023-10-14T04:23:44.862Z,3.30
2023-10-14T04:26:15.846Z,3.00
2023-10-14T04:29:00.240Z,3.30
2023-10-14T04:31:42.536Z,2.80
2023-10-14T04:34:16.419Z,3.10
2023-10-14T04:36:55.328Z,3.20
2023-10-14T04:39:34.063Z,3.22
2023-10-14T04:42:16.414Z,2.88
2023-10-14T04:45:00.651Z,3.05
2023-10-14T04:47:39.888Z,3.45
2023-10-14T04:50:15.032Z,3.00
2023-10-14T04:52:49.877Z,2.80
2023-10-14T04:55:26.869Z,3.00
2023-10-14T04:58:09.904Z,6.63
2023-10-14T05:00:46.893Z,3.03
2023-10-14T05:03:20.503Z,3.15
2023-10-14T05:05:53.525Z,3.20
2023-10-14T05:08:25.582Z,3.90
2023-10-14T05:10:57.965Z,2.72
2023-10-14T05:13:33.259Z,3.40
2023-10-14T05:16:22.699Z,3.40
2023-10-14T05:19:07.309Z,3.63
2023-10-14T05:21:44.774Z,3.20
2023-10-14T05:24:16.286Z,3.13
2023-10-14T05:26:48.570Z,2.72
2023-10-14T05:29:21.205Z,3.38
2023-10-14T05:31:54.617Z,3.25
2023-10-14T05:34:26.360Z,3.17
2023-10-14T05:36:57.373Z,3.65
2023-10-14T05:39:29.077Z,4.07
2023-10-14T05:42:05.231Z,3.53
2023-10-14T05:44:35.027Z,3.88
2023-10-14T05:47:08.812Z,3.90
2023-10-14T05:49:39.190Z,3.97
2023-10-14T05:52:10.279Z,3.60
2023-10-14T05:54:40.070Z,3.67
2023-10-14T05:57:11.360Z,4.70
2023-10-14T05:59:42.722Z,4.47
2023-10-14T06:02:15.598Z,4.47
2023-10-14T06:04:47.317Z,3.63
2023-10-14T06:07:19.701Z,3.75
2023-10-14T06:09:52.868Z,4.20
2023-10-14T06:12:25.945Z,3.97
2023-10-14T06:14:57.600Z,3.92
2023-10-14T06:17:40.506Z,3.83
2023-10-14T06:20:15.802Z,4.05
2023-10-14T06:22:47.951Z,4.53
2023-10-14T06:25:22.619Z,5.47
2023-10-14T06:27:55.281Z,4.40
2023-10-14T06:30:26.862Z,3.80
2023-10-14T06:33:05.637Z,3.45
2023-10-14T06:35:44.058Z,3.85
2023-10-14T06:38:19.632Z,3.40
2023-10-14T06:40:54.794Z,4.00
2023-10-14T06:43:29.524Z,3.55
2023-10-14T06:46:01.494Z,3.15
2023-10-14T06:48:40.268Z,3.08
2023-10-14T06:51:22.530Z,3.28
2023-10-14T06:53:57.157Z,3.00
2023-10-14T06:56:29.433Z,5.18
2023-10-14T06:59:22.027Z,10.00
2023-10-14T07:01:54.860Z,3.25
2023-10-14T07:04:29.194Z,3.40
2023-10-14T07:07:01.471Z,3.00
2023-10-14T07:09:33.260Z,2.78
2023-10-14T07:12:08.806Z,2.60
2023-10-14T07:14:43.976Z,3.15
2023-10-14T07:17:19.937Z,3.40
2023-10-14T07:19:57.510Z,2.78
2023-10-14T07:22:32.022Z,3.17
2023-10-14T07:25:14.652Z,3.65
2023-10-14T07:27:48.704Z,2.90
2023-10-14T07:30:29.862Z,2.53
2023-10-14T07:33:08.263Z,3.20
2023-10-14T07:35:45.588Z,3.15
2023-10-14T07:38:16.874Z,2.80
2023-10-14T07:41:00.475Z,2.97
2023-10-14T07:43:36.880Z,2.53
2023-10-14T07:46:08.278Z,4.20
2023-10-14T07:48:42.190Z,3.10
2023-10-14T07:54:14.193Z,5.82
2023-10-14T07:56:44.514Z,2.75
2023-10-14T07:59:15.787Z,2.92
2023-10-14T08:01:47.168Z,3.00
2023-10-14T08:04:19.569Z,2.90
2023-10-14T08:06:52.233Z,2.90
2023-10-14T08:09:30.121Z,3.00
2023-10-14T08:12:00.740Z,3.05
2023-10-14T08:14:32.364Z,2.88
2023-10-14T08:17:02.537Z,3.15
2023-10-14T08:19:32.423Z,2.88
2023-10-14T08:22:06.536Z,3.15
2023-10-14T08:24:36.379Z,5.15
2023-10-14T08:27:06.382Z,3.22
2023-10-14T08:29:36.429Z,3.47
2023-10-14T08:32:07.520Z,2.75
2023-10-14T08:34:37.767Z,2.83
2023-10-14T08:37:12.247Z,2.83
2023-10-14T08:39:42.029Z,2.33
2023-10-14T08:42:13.663Z,3.35
2023-10-14T08:44:46.960Z,3.03
2023-10-14T08:47:17.439Z,2.63
2023-10-14T08:49:47.806Z,3.25
2023-10-14T08:52:21.881Z,4.30
2023-10-14T08:54:52.597Z,3.30
2023-10-14T08:57:23.408Z,2.58
2023-10-14T08:59:53.592Z,3.00
2023-10-14T09:02:24.121Z,3.22
2023-10-14T09:04:54.041Z,4.43
2023-10-14T09:07:27.972Z,3.00
2023-10-14T09:12:27.779Z,2.80
2023-10-14T09:14:57.814Z,2.90
2023-10-14T09:17:29.584Z,2.75
2023-10-14T09:19:59.542Z,5.88
2023-10-14T09:22:35.531Z,3.42
2023-10-14T09:25:05.528Z,3.38
2023-10-14T09:27:35.703Z,2.67
2023-10-14T09:30:05.598Z,2.65
2023-10-14T09:32:36.760Z,2.95
2023-10-14T09:35:07.233Z,2.75
2023-10-14T09:37:42.372Z,3.75
2023-10-14T09:40:14.641Z,3.50
2023-10-14T09:42:45.934Z,2.60
2023-10-14T09:45:15.877Z,3.22
2023-10-14T09:47:48.346Z,2.60
2023-10-14T09:50:19.311Z,2.83
2023-10-14T09:52:55.455Z,2.80
2023-10-14T09:55:25.350Z,2.80
2023-10-14T09:57:55.308Z,3.25
2023-10-14T10:00:25.516Z,3.03
2023-10-14T10:02:55.893Z,2.85
2023-10-14T10:05:30.002Z,2.75
2023-10-14T10:08:14.844Z,2.83
2023-10-14T10:10:45.573Z,3.00
2023-10-14T10:13:16.251Z,3.42
2023-10-14T10:15:46.116Z,3.72
2023-10-14T10:18:17.873Z,3.45
2023-10-14T10:20:56.836Z,2.85
2023-10-14T10:23:31.116Z,3.35
2023-10-14T10:26:04.437Z,2.22
2023-10-14T10:28:43.746Z,2.60
2023-10-14T10:31:17.560Z,2.78
2023-10-14T10:36:26.047Z,2.97
2023-10-14T10:38:59.997Z,2.63
2023-10-14T10:44:06.491Z,3.10
2023-10-14T10:46:42.163Z,2.60
2023-10-14T10:49:14.501Z,2.83
2023-10-14T10:51:54.767Z,2.40
2023-10-14T10:54:27.831Z,3.30
2023-10-14T10:57:07.384Z,3.23
2023-10-14T10:59:39.528Z,3.10
2023-10-14T11:02:11.560Z,3.17
2023-10-14T11:04:43.176Z,2.45
2023-10-14T11:07:13.805Z,3.15
2023-10-14T11:09:46.408Z,3.42
2023-10-14T11:12:16.549Z,2.78
2023-10-14T11:14:46.418Z,2.97
2023-10-14T11:17:17.622Z,2.80
2023-10-14T11:19:48.296Z,3.30
2023-10-14T11:22:18.338Z,3.45
2023-10-14T11:24:51.172Z,2.63
2023-10-14T11:27:21.664Z,2.78
2023-10-14T11:29:51.789Z,2.60
2023-10-14T11:32:21.726Z,2.47
2023-10-14T11:34:54.200Z,2.83
2023-10-14T11:37:24.115Z,2.50
2023-10-14T11:39:56.888Z,2.83
2023-10-14T11:42:26.952Z,2.50
2023-10-14T11:44:57.597Z,2.47
2023-10-14T11:47:37.479Z,2.83
2023-10-14T11:50:12.932Z,2.72
2023-10-14T11:52:44.182Z,2.42
2023-10-14T11:55:18.259Z,2.40
2023-10-14T11:57:49.925Z,2.35
2023-10-14T12:00:21.704Z,2.58
2023-10-14T12:02:51.950Z,2.50
2023-10-14T12:05:22.303Z,2.35
2023-10-14T12:07:52.892Z,2.95
2023-10-14T12:10:27.579Z,2.60
2023-10-14T12:12:57.491Z,2.70
2023-10-14T12:15:29.030Z,2.30
2023-10-14T12:17:58.885Z,2.22
2023-10-14T12:20:30.574Z,2.22
2023-10-14T12:23:00.442Z,2.28
2023-10-14T12:25:32.938Z,2.40
2023-10-14T12:28:02.837Z,2.58
2023-10-14T12:30:41.176Z,2.80
2023-10-14T12:33:20.279Z,2.00
2023-10-14T12:35:52.616Z,2.45
2023-10-14T12:38:24.227Z,2.95
2023-10-14T12:40:57.201Z,3.42
2023-10-14T12:43:34.497Z,2.63
2023-10-14T12:46:14.133Z,2.55
2023-10-14T12:48:46.862Z,2.30
2023-10-14T12:51:19.969Z,2.30
2023-10-14T12:53:49.953Z,2.10
2023-10-14T12:56:24.115Z,2.35
2023-10-14T12:58:53.925Z,2.10
2023-10-14T13:01:23.998Z,2.17
2023-10-14T13:03:58.210Z,2.17
2023-10-14T13:06:29.435Z,2.30
2023-10-14T13:09:00.795Z,2.20
2023-10-14T13:11:35.541Z,2.42
2023-10-14T13:14:05.348Z,2.53
2023-10-14T13:16:35.727Z,2.25
2023-10-14T13:19:06.124Z,2.10
2023-10-14T13:21:42.353Z,2.58
2023-10-14T13:24:13.369Z,2.40
2023-10-14T13:26:46.642Z,1.88
2023-10-14T13:29:16.436Z,2.25
2023-10-14T13:31:47.854Z,2.17
2023-10-14T13:34:20.028Z,2.35
2023-10-14T13:36:57.775Z,1.98
2023-10-14T13:39:36.892Z,3.00
2023-10-14T13:42:09.958Z,2.78
2023-10-14T13:44:40.127Z,2.50
2023-10-14T13:47:10.052Z,2.22
2023-10-14T13:49:43.980Z,2.05
2023-10-14T13:54:45.907Z,2.15
2023-10-14T13:57:19.367Z,2.53
2023-10-14T13:59:49.183Z,2.83
2023-10-14T14:02:20.898Z,2.53
2023-10-14T14:04:50.937Z,3.42
2023-10-14T14:07:20.962Z,3.03
2023-10-14T14:09:51.193Z,2.90
2023-10-14T14:12:23.622Z,2.65
2023-10-14T14:14:54.304Z,3.00
2023-10-14T14:17:27.110Z,1.65
2023-10-14T14:19:57.307Z,2.63
2023-10-14T14:22:27.424Z,2.55
2023-10-14T14:24:57.255Z,2.00
2023-10-14T14:27:29.602Z,2.20
2023-10-14T14:29:59.463Z,2.60
2023-10-14T14:32:30.394Z,2.15
2023-10-14T14:35:00.521Z,7.78
2023-10-14T14:37:34.187Z,2.58
2023-10-14T14:42:46.874Z,2.35
2023-10-14T14:45:24.209Z,2.20
2023-10-14T14:47:55.222Z,2.47
2023-10-14T14:50:27.656Z,2.47
2023-10-14T14:52:58.669Z,2.80
2023-10-14T14:55:31.082Z,2.70
2023-10-14T14:58:03.625Z,2.88
2023-10-14T15:00:33.372Z,2.60
2023-10-14T15:03:06.702Z,2.35
2023-10-14T15:05:37.619Z,1.55
2023-10-14T15:08:12.260Z,3.45
2023-10-14T15:10:44.157Z,2.15
2023-10-14T15:13:18.679Z,2.30
2023-10-14T15:15:51.842Z,2.38
2023-10-14T15:18:23.629Z,2.10
2023-10-14T15:20:53.520Z,2.35
2023-10-14T15:23:24.065Z,2.33
2023-10-14T15:25:53.903Z,2.22
2023-10-14T15:28:26.327Z,2.65
2023-10-14T15:30:56.173Z,2.45
2023-10-14T15:33:25.975Z,3.58
2023-10-14T15:35:55.826Z,2.83
2023-10-14T15:38:25.579Z,3.20
2023-10-14T15:40:55.510Z,3.03
2023-10-14T15:43:29.306Z,3.53
2023-10-14T15:46:03.254Z,2.50
2023-10-14T15:51:04.921Z,2.40
2023-10-14T15:53:34.908Z,2.42
2023-10-14T15:56:04.680Z,2.38
2023-10-14T15:58:40.997Z,3.00
2023-10-14T16:01:11.605Z,2.80
2023-10-14T16:03:41.673Z,2.05
2023-10-14T16:06:12.642Z,2.13
2023-10-14T16:08:42.713Z,2.95
2023-10-14T16:11:16.244Z,5.10
2023-10-14T16:13:48.873Z,5.60
2023-10-14T16:16:19.759Z,3.40
2023-10-14T16:18:52.177Z,3.00
2023-10-14T16:21:24.087Z,2.80
2023-10-14T16:23:54.633Z,2.40
2023-10-14T16:26:24.493Z,2.50
2023-10-14T16:29:04.453Z,3.33
2023-10-14T16:31:36.568Z,2.50
2023-10-14T16:34:06.564Z,3.17
2023-10-14T16:36:36.361Z,5.43
2023-10-14T16:39:10.649Z,3.28
2023-10-14T16:41:41.602Z,4.00
2023-10-14T16:44:14.084Z,3.13
2023-10-14T16:46:44.922Z,2.47
2023-10-14T16:49:15.011Z,2.53
2023-10-14T16:51:44.916Z,2.60
2023-10-14T16:54:14.825Z,3.95
2023-10-14T16:56:46.974Z,4.43
2023-10-14T16:59:19.620Z,2.92
2023-10-14T17:01:49.520Z,3.60
2023-10-14T17:04:20.082Z,3.88
2023-10-14T17:06:50.007Z,2.95
2023-10-14T17:09:21.223Z,2.88
2023-10-14T17:11:51.460Z,3.40
2023-10-14T17:14:30.313Z,2.80
2023-10-14T17:17:00.549Z,3.40
2023-10-14T17:19:30.471Z,2.53
2023-10-14T17:22:01.280Z,2.97
2023-10-14T17:24:31.198Z,3.10
2023-10-14T17:27:01.386Z,4.80
2023-10-14T17:29:35.066Z,7.30
2023-10-14T17:32:09.953Z,6.22
2023-10-14T17:34:40.233Z,4.60
2023-10-14T17:37:11.768Z,4.60
2023-10-14T17:39:41.855Z,6.38
2023-10-14T17:42:15.162Z,5.65
2023-10-14T17:44:48.239Z,4.78
2023-10-14T17:47:21.996Z,3.97
2023-10-14T17:49:52.997Z,4.18
2023-10-14T17:52:23.634Z,4.95
2023-10-14T17:54:59.790Z,3.72
2023-10-14T17:57:51.850Z,4.47
2023-10-14T18:00:32.540Z,4.88
2023-10-14T18:03:13.282Z,10.07
2023-10-14T18:05:48.189Z,11.25
2023-10-14T18:10:53.561Z,9.63
2023-10-14T18:13:28.907Z,4.50
2023-10-14T18:16:05.096Z,6.05
2023-10-14T18:18:45.960Z,3.42
2023-10-14T18:21:24.922Z,3.40
2023-10-14T18:23:59.854Z,3.67
2023-10-14T18:26:30.058Z,3.83
2023-10-14T18:29:02.276Z,3.67
2023-10-14T18:31:38.134Z,3.63
2023-10-14T18:34:10.349Z,3.28
2023-10-14T18:36:44.817Z,3.65
2023-10-14T18:39:16.070Z,3.60
2023-10-14T18:41:54.831Z,4.50
2023-10-14T18:44:30.080Z,3.83
2023-10-14T18:47:03.628Z,3.75
2023-10-14T18:52:12.759Z,5.20
2023-10-14T18:54:43.752Z,4.68
2023-10-14T18:57:14.598Z,5.05
2023-10-14T18:59:45.962Z,5.20
2023-10-14T19:02:31.539Z,9.98
2023-10-14T19:05:04.517Z,10.50
2023-10-14T19:07:34.814Z,4.93
2023-10-14T19:10:09.587Z,5.63
2023-10-14T19:12:39.722Z,4.75
2023-10-14T19:15:23.712Z,4.32
2023-10-14T19:17:59.690Z,3.95
2023-10-14T19:20:30.459Z,4.03
2023-10-14T19:23:15.462Z,4.00
2023-10-14T19:25:55.187Z,5.30
2023-10-14T19:28:28.055Z,5.22
2023-10-14T19:31:02.597Z,6.88
2023-10-14T19:33:37.141Z,5.30
2023-10-14T19:36:15.004Z,4.82
2023-10-14T19:38:46.780Z,3.53
2023-10-14T19:41:20.884Z,3.65
2023-10-14T19:43:51.169Z,4.00
2023-10-14T19:46:24.781Z,4.15
2023-10-14T19:49:03.279Z,4.53
2023-10-14T19:51:34.520Z,3.83
2023-10-14T19:54:10.087Z,3.00
2023-10-14T19:56:47.283Z,3.20
2023-10-14T19:59:17.408Z,3.20
2023-10-14T20:01:48.938Z,3.00
2023-10-14T20:04:22.277Z,3.25
2023-10-14T20:07:01.210Z,8.98
2023-10-14T20:09:34.306Z,8.32
2023-10-14T20:12:10.730Z,3.45
2023-10-14T20:14:48.543Z,3.30
2023-10-14T20:17:22.991Z,3.20
2023-10-14T20:19:56.582Z,3.28
2023-10-14T20:22:28.697Z,3.22
2023-10-14T20:25:03.096Z,3.67
2023-10-14T20:27:33.286Z,3.45
2023-10-14T20:30:11.900Z,3.28
2023-10-14T20:33:08.813Z,3.75
2023-10-14T20:35:44.048Z,3.22
2023-10-14T20:38:19.624Z,3.35
2023-10-14T20:40:51.433Z,3.88
2023-10-14T20:43:29.020Z,3.45
2023-10-14T20:46:00.353Z,3.67
2023-10-14T20:48:30.729Z,4.00
2023-10-14T20:51:05.886Z,4.20
2023-10-14T20:53:37.200Z,3.78
2023-10-14T20:56:21.486Z,3.83
2023-10-14T20:58:55.587Z,3.72
2023-10-14T21:03:58.212Z,3.65
2023-10-14T21:06:38.237Z,4.00
2023-10-14T21:09:11.212Z,4.28
2023-10-14T21:11:41.687Z,4.22
2023-10-14T21:14:11.872Z,4.25
2023-10-14T21:16:49.629Z,4.03
2023-10-14T21:19:23.134Z,4.03
2023-10-14T21:24:28.882Z,3.78
2023-10-14T21:27:11.091Z,3.95
2023-10-14T21:29:41.733Z,3.10
2023-10-14T21:32:18.777Z,3.60
2023-10-14T21:34:49.277Z,4.00
2023-10-14T21:37:26.717Z,4.00
2023-10-14T21:39:59.287Z,3.88
2023-10-14T21:42:29.821Z,3.92
2023-10-14T21:45:02.964Z,3.58
2023-10-14T21:47:37.941Z,4.10
2023-10-14T21:50:12.940Z,3.70
2023-10-14T21:52:45.574Z,4.10
2023-10-14T21:55:20.801Z,3.95
2023-10-14T21:57:51.121Z,4.07
2023-10-14T22:00:25.766Z,3.95
2023-10-14T22:02:58.226Z,4.00
2023-10-14T22:05:30.889Z,3.80
2023-10-14T22:08:06.540Z,4.00
2023-10-14T22:13:11.567Z,4.13
2023-10-14T22:15:46.753Z,4.40
2023-10-14T22:18:17.096Z,4.32
2023-10-14T22:20:47.132Z,4.13
2023-10-14T22:23:22.054Z,4.00
2023-10-14T22:25:53.690Z,4.72
2023-10-14T22:28:23.967Z,5.05
2023-10-14T22:30:59.657Z,4.70
2023-10-14T22:33:32.663Z,4.90
2023-10-14T22:36:03.834Z,4.55
2023-10-14T22:38:38.993Z,4.65
2023-10-14T22:41:10.226Z,4.28
2023-10-14T22:43:42.115Z,4.70
2023-10-14T22:46:12.762Z,4.38
2023-10-14T22:48:45.380Z,4.40
2023-10-14T22:51:18.391Z,4.20
2023-10-14T22:53:51.618Z,4.18
2023-10-14T22:56:21.512Z,4.35
2023-10-14T22:58:53.492Z,4.40
2023-10-14T23:01:30.658Z,5.00
2023-10-14T23:04:01.948Z,4.20
2023-10-14T23:06:32.226Z,4.78
2023-10-14T23:09:06.114Z,5.03
2023-10-14T23:11:37.792Z,4.68
2023-10-14T23:14:08.736Z,4.50
2023-10-14T23:16:38.996Z,4.68
2023-10-14T23:19:11.875Z,4.88
2023-10-14T23:21:45.502Z,4.60
2023-10-14T23:24:18.751Z,4.78
2023-10-14T23:26:48.906Z,4.40
2023-10-14T23:29:22.138Z,4.78
2023-10-14T23:31:53.025Z,5.10
2023-10-14T23:34:26.056Z,5.03
2023-10-14T23:36:57.127Z,5.85
2023-10-14T23:39:33.081Z,7.28
2023-10-14T23:42:03.266Z,6.50
2023-10-14T23:44:33.189Z,5.85
2023-10-14T23:47:03.642Z,6.22
2023-10-14T23:49:34.022Z,5.88
2023-10-14T23:52:05.245Z,5.57
2023-10-14T23:54:40.787Z,5.15
2023-10-14T23:57:12.080Z,4.97
2023-10-14T23:59:51.486Z,5.50
